sensor_id;sensor_type;location;lat;lon;timestamp;temperature;humidity
3360;DHT22;1693;49.602;11.046;2023-06-10T00:01:53;13.60;99.90
3360;DHT22;1693;49.602;11.046;2023-06-10T00:04:27;13.50;99.90
3360;DHT22;1693;49.602;11.046;2023-06-10T00:06:54;13.50;99.90
3360;DHT22;1693;49.602;11.046;2023-06-10T00:09:21;13.50;99.90
3360;DHT22;1693;49.602;11.046;2023-06-10T00:11:48;13.40;99.90
3360;DHT22;1693;49.602;11.046;2023-06-10T00:14:15;13.30;99.90
3360;DHT22;1693;49.602;11.046;2023-06-10T00:16:43;13.20;99.90
3360;DHT22;1693;49.602;11.046;2023-06-10T00:19:12;13.20;99.90
3360;DHT22;1693;49.602;11.046;2023-06-10T00:21:41;13.20;99.90
3360;DHT22;1693;49.602;11.046;2023-06-10T00:24:10;13.10;99.90
3360;DHT22;1693;49.602;11.046;2023-06-10T00:26:38;13.20;99.90
3360;DHT22;1693;49.602;11.046;2023-06-10T00:29:05;13.20;99.90
3360;DHT22;1693;49.602;11.046;2023-06-10T00:31:34;13.20;99.90
3360;DHT22;1693;49.602;11.046;2023-06-10T00:34:01;13.20;99.90
3360;DHT22;1693;49.602;11.046;2023-06-10T00:36:30;13.20;99.90
3360;DHT22;1693;49.602;11.046;2023-06-10T00:38:57;13.20;99.90
3360;DHT22;1693;49.602;11.046;2023-06-10T00:41:24;13.10;99.90
3360;DHT22;1693;49.602;11.046;2023-06-10T00:43:52;13.10;99.90
3360;DHT22;1693;49.602;11.046;2023-06-10T00:46:20;13.10;99.90
3360;DHT22;1693;49.602;11.046;2023-06-10T00:48:47;13.00;99.90
3360;DHT22;1693;49.602;11.046;2023-06-10T00:51:15;13.00;99.90
3360;DHT22;1693;49.602;11.046;2023-06-10T00:53:45;12.90;99.90
3360;DHT22;1693;49.602;11.046;2023-06-10T00:56:13;12.90;99.90
3360;DHT22;1693;49.602;11.046;2023-06-10T00:58:41;12.90;99.90
3360;DHT22;1693;49.602;11.046;2023-06-10T01:01:08;12.80;99.90
3360;DHT22;1693;49.602;11.046;2023-06-10T01:03:36;12.80;99.90
3360;DHT22;1693;49.602;11.046;2023-06-10T01:06:08;12.80;99.90
3360;DHT22;1693;49.602;11.046;2023-06-10T01:08:43;12.80;99.90
3360;DHT22;1693;49.602;11.046;2023-06-10T01:11:17;12.70;99.90
3360;DHT22;1693;49.602;11.046;2023-06-10T01:13:46;12.70;99.90
3360;DHT22;1693;49.602;11.046;2023-06-10T01:16:17;12.70;99.90
3360;DHT22;1693;49.602;11.046;2023-06-10T01:18:44;12.60;99.90
3360;DHT22;1693;49.602;11.046;2023-06-10T01:21:19;12.70;99.90
3360;DHT22;1693;49.602;11.046;2023-06-10T01:23:47;12.70;99.90
3360;DHT22;1693;49.602;11.046;2023-06-10T01:26:15;12.70;99.90
3360;DHT22;1693;49.602;11.046;2023-06-10T01:28:47;12.70;99.90
3360;DHT22;1693;49.602;11.046;2023-06-10T01:31:18;12.60;99.90
3360;DHT22;1693;49.602;11.046;2023-06-10T01:33:51;12.60;99.90
3360;DHT22;1693;49.602;11.046;2023-06-10T01:36:21;12.60;99.90
3360;DHT22;1693;49.602;11.046;2023-06-10T01:38:50;12.70;99.90
3360;DHT22;1693;49.602;11.046;2023-06-10T01:41:19;12.70;99.90
3360;DHT22;1693;49.602;11.046;2023-06-10T01:43:48;12.70;99.90
3360;DHT22;1693;49.602;11.046;2023-06-10T01:46:15;12.70;99.90
3360;DHT22;1693;49.602;11.046;2023-06-10T01:48:45;12.70;99.90
3360;DHT22;1693;49.602;11.046;2023-06-10T01:51:12;12.80;99.90
3360;DHT22;1693;49.602;11.046;2023-06-10T01:53:41;12.80;99.90
3360;DHT22;1693;49.602;11.046;2023-06-10T01:56:08;12.80;99.90
3360;DHT22;1693;49.602;11.046;2023-06-10T01:58:35;12.70;99.90
3360;DHT22;1693;49.602;11.046;2023-06-10T02:01:02;12.80;99.90
3360;DHT22;1693;49.602;11.046;2023-06-10T02:03:30;12.80;99.90
3360;DHT22;1693;49.602;11.046;2023-06-10T02:05:57;12.70;99.90
3360;DHT22;1693;49.602;11.046;2023-06-10T02:08:24;12.60;99.90
3360;DHT22;1693;49.602;11.046;2023-06-10T02:10:54;12.60;99.90
3360;DHT22;1693;49.602;11.046;2023-06-10T02:13:22;12.50;99.90
3360;DHT22;1693;49.602;11.046;2023-06-10T02:15:49;12.40;99.90
3360;DHT22;1693;49.602;11.046;2023-06-10T02:18:16;12.30;99.90
3360;DHT22;1693;49.602;11.046;2023-06-10T02:20:46;12.20;99.90
3360;DHT22;1693;49.602;11.046;2023-06-10T02:23:13;12.10;99.90
3360;DHT22;1693;49.602;11.046;2023-06-10T02:25:40;12.10;99.90
3360;DHT22;1693;49.602;11.046;2023-06-10T02:28:08;12.10;99.90
3360;DHT22;1693;49.602;11.046;2023-06-10T02:30:38;12.00;99.90
3360;DHT22;1693;49.602;11.046;2023-06-10T02:33:06;12.00;99.90
3360;DHT22;1693;49.602;11.046;2023-06-10T02:35:35;12.00;99.90
3360;DHT22;1693;49.602;11.046;2023-06-10T02:38:03;11.90;99.90
3360;DHT22;1693;49.602;11.046;2023-06-10T02:40:30;11.90;99.90
3360;DHT22;1693;49.602;11.046;2023-06-10T02:42:58;11.90;99.90
3360;DHT22;1693;49.602;11.046;2023-06-10T02:45:26;12.00;99.90
3360;DHT22;1693;49.602;11.046;2023-06-10T02:47:54;11.90;99.90
3360;DHT22;1693;49.602;11.046;2023-06-10T02:50:21;12.00;99.90
3360;DHT22;1693;49.602;11.046;2023-06-10T02:52:48;12.00;99.90
3360;DHT22;1693;49.602;11.046;2023-06-10T02:55:16;12.10;99.90
3360;DHT22;1693;49.602;11.046;2023-06-10T02:57:43;12.10;99.90
3360;DHT22;1693;49.602;11.046;2023-06-10T03:00:11;12.30;99.90
3360;DHT22;1693;49.602;11.046;2023-06-10T03:02:47;12.40;99.90
3360;DHT22;1693;49.602;11.046;2023-06-10T03:05:14;12.40;99.90
3360;DHT22;1693;49.602;11.046;2023-06-10T03:07:42;12.50;99.90
3360;DHT22;1693;49.602;11.046;2023-06-10T03:10:12;12.60;99.90
3360;DHT22;1693;49.602;11.046;2023-06-10T03:12:39;12.70;99.90
3360;DHT22;1693;49.602;11.046;2023-06-10T03:15:07;12.70;99.90
3360;DHT22;1693;49.602;11.046;2023-06-10T03:17:34;12.70;99.90
3360;DHT22;1693;49.602;11.046;2023-06-10T03:20:03;12.50;99.90
3360;DHT22;1693;49.602;11.046;2023-06-10T03:22:31;12.30;99.90
3360;DHT22;1693;49.602;11.046;2023-06-10T03:24:58;12.30;99.90
3360;DHT22;1693;49.602;11.046;2023-06-10T03:27:25;12.20;99.90
3360;DHT22;1693;49.602;11.046;2023-06-10T03:29:52;12.10;99.90
3360;DHT22;1693;49.602;11.046;2023-06-10T03:32:19;12.10;99.90
3360;DHT22;1693;49.602;11.046;2023-06-10T03:34:47;12.10;99.90
3360;DHT22;1693;49.602;11.046;2023-06-10T03:37:15;12.10;99.90
3360;DHT22;1693;49.602;11.046;2023-06-10T03:39:42;12.10;99.90
3360;DHT22;1693;49.602;11.046;2023-06-10T03:42:10;12.00;99.90
3360;DHT22;1693;49.602;11.046;2023-06-10T03:44:37;12.00;99.90
3360;DHT22;1693;49.602;11.046;2023-06-10T03:47:04;12.10;99.90
3360;DHT22;1693;49.602;11.046;2023-06-10T03:49:31;12.10;99.90
3360;DHT22;1693;49.602;11.046;2023-06-10T03:51:58;12.20;99.90
3360;DHT22;1693;49.602;11.046;2023-06-10T03:54:27;12.30;99.90
3360;DHT22;1693;49.602;11.046;2023-06-10T03:56:54;12.40;99.90
3360;DHT22;1693;49.602;11.046;2023-06-10T03:59:21;12.40;99.90
3360;DHT22;1693;49.602;11.046;2023-06-10T04:01:49;12.30;99.90
3360;DHT22;1693;49.602;11.046;2023-06-10T04:04:16;12.50;99.90
3360;DHT22;1693;49.602;11.046;2023-06-10T04:06:43;12.70;99.90
3360;DHT22;1693;49.602;11.046;2023-06-10T04:09:11;12.80;99.90
3360;DHT22;1693;49.602;11.046;2023-06-10T04:11:39;12.80;99.90
3360;DHT22;1693;49.602;11.046;2023-06-10T04:14:07;12.70;99.90
3360;DHT22;1693;49.602;11.046;2023-06-10T04:16:34;12.60;99.90
3360;DHT22;1693;49.602;11.046;2023-06-10T04:19:01;12.60;99.90
3360;DHT22;1693;49.602;11.046;2023-06-10T04:21:28;12.60;99.90
3360;DHT22;1693;49.602;11.046;2023-06-10T04:23:55;12.60;99.90
3360;DHT22;1693;49.602;11.046;2023-06-10T04:26:22;12.70;99.90
3360;DHT22;1693;49.602;11.046;2023-06-10T04:28:52;12.70;99.90
3360;DHT22;1693;49.602;11.046;2023-06-10T04:31:19;12.80;99.90
3360;DHT22;1693;49.602;11.046;2023-06-10T04:33:46;12.80;99.90
3360;DHT22;1693;49.602;11.046;2023-06-10T04:36:13;12.90;99.90
3360;DHT22;1693;49.602;11.046;2023-06-10T04:38:40;12.90;99.90
3360;DHT22;1693;49.602;11.046;2023-06-10T04:41:08;13.00;99.90
3360;DHT22;1693;49.602;11.046;2023-06-10T04:43:35;13.10;99.90
3360;DHT22;1693;49.602;11.046;2023-06-10T04:46:04;13.30;99.90
3360;DHT22;1693;49.602;11.046;2023-06-10T04:48:31;13.40;99.90
3360;DHT22;1693;49.602;11.046;2023-06-10T04:51:00;13.70;99.90
3360;DHT22;1693;49.602;11.046;2023-06-10T04:53:27;14.00;99.90
3360;DHT22;1693;49.602;11.046;2023-06-10T04:55:56;14.30;99.90
3360;DHT22;1693;49.602;11.046;2023-06-10T04:58:23;14.30;99.90
3360;DHT22;1693;49.602;11.046;2023-06-10T05:00:50;14.40;99.90
3360;DHT22;1693;49.602;11.046;2023-06-10T05:03:18;14.50;99.90
3360;DHT22;1693;49.602;11.046;2023-06-10T05:05:45;14.60;99.90
3360;DHT22;1693;49.602;11.046;2023-06-10T05:08:14;14.80;99.90
3360;DHT22;1693;49.602;11.046;2023-06-10T05:10:41;15.20;99.90
3360;DHT22;1693;49.602;11.046;2023-06-10T05:13:08;15.50;99.90
3360;DHT22;1693;49.602;11.046;2023-06-10T05:15:36;15.80;99.90
3360;DHT22;1693;49.602;11.046;2023-06-10T05:18:03;15.80;99.90
3360;DHT22;1693;49.602;11.046;2023-06-10T05:20:32;15.50;99.90
3360;DHT22;1693;49.602;11.046;2023-06-10T05:22:59;15.50;99.90
3360;DHT22;1693;49.602;11.046;2023-06-10T05:25:28;15.60;99.90
3360;DHT22;1693;49.602;11.046;2023-06-10T05:27:56;15.80;99.90
3360;DHT22;1693;49.602;11.046;2023-06-10T05:30:24;16.00;99.90
3360;DHT22;1693;49.602;11.046;2023-06-10T05:32:52;16.20;99.90
3360;DHT22;1693;49.602;11.046;2023-06-10T05:35:19;16.30;99.90
3360;DHT22;1693;49.602;11.046;2023-06-10T05:37:48;16.50;99.90
3360;DHT22;1693;49.602;11.046;2023-06-10T05:40:15;16.80;99.90
3360;DHT22;1693;49.602;11.046;2023-06-10T05:42:42;16.90;99.90
3360;DHT22;1693;49.602;11.046;2023-06-10T05:45:10;17.00;99.90
3360;DHT22;1693;49.602;11.046;2023-06-10T05:47:38;17.10;99.90
3360;DHT22;1693;49.602;11.046;2023-06-10T05:50:06;17.40;99.90
3360;DHT22;1693;49.602;11.046;2023-06-10T05:52:34;17.80;99.90
3360;DHT22;1693;49.602;11.046;2023-06-10T05:55:04;18.10;99.90
3360;DHT22;1693;49.602;11.046;2023-06-10T05:57:31;18.20;99.90
3360;DHT22;1693;49.602;11.046;2023-06-10T05:59:58;18.40;99.90
3360;DHT22;1693;49.602;11.046;2023-06-10T06:02:25;18.60;99.90
3360;DHT22;1693;49.602;11.046;2023-06-10T06:04:52;18.70;99.90
3360;DHT22;1693;49.602;11.046;2023-06-10T06:07:19;18.80;99.90
3360;DHT22;1693;49.602;11.046;2023-06-10T06:09:47;18.80;99.90
3360;DHT22;1693;49.602;11.046;2023-06-10T06:12:15;18.80;99.90
3360;DHT22;1693;49.602;11.046;2023-06-10T06:14:42;18.80;99.90
3360;DHT22;1693;49.602;11.046;2023-06-10T06:17:10;18.80;99.90
3360;DHT22;1693;49.602;11.046;2023-06-10T06:19:38;19.00;99.90
3360;DHT22;1693;49.602;11.046;2023-06-10T06:22:06;19.20;99.90
3360;DHT22;1693;49.602;11.046;2023-06-10T06:29:29;19.80;99.90
3360;DHT22;1693;49.602;11.046;2023-06-10T06:31:56;20.00;99.90
3360;DHT22;1693;49.602;11.046;2023-06-10T06:34:23;20.10;99.90
3360;DHT22;1693;49.602;11.046;2023-06-10T06:36:50;20.30;99.90
3360;DHT22;1693;49.602;11.046;2023-06-10T06:39:17;20.40;99.90
3360;DHT22;1693;49.602;11.046;2023-06-10T06:41:44;20.50;99.90
3360;DHT22;1693;49.602;11.046;2023-06-10T06:44:11;20.60;99.90
3360;DHT22;1693;49.602;11.046;2023-06-10T06:46:40;20.60;99.90
3360;DHT22;1693;49.602;11.046;2023-06-10T06:49:07;21.00;99.90
3360;DHT22;1693;49.602;11.046;2023-06-10T06:51:34;20.80;99.90
3360;DHT22;1693;49.602;11.046;2023-06-10T06:54:01;21.10;99.90
3360;DHT22;1693;49.602;11.046;2023-06-10T06:56:29;21.10;99.90
3360;DHT22;1693;49.602;11.046;2023-06-10T06:58:56;21.30;99.90
3360;DHT22;1693;49.602;11.046;2023-06-10T07:01:23;21.30;99.90
3360;DHT22;1693;49.602;11.046;2023-06-10T07:03:51;21.40;99.90
3360;DHT22;1693;49.602;11.046;2023-06-10T07:06:19;21.40;99.90
3360;DHT22;1693;49.602;11.046;2023-06-10T07:08:46;21.60;99.90
3360;DHT22;1693;49.602;11.046;2023-06-10T07:11:13;21.70;99.90
3360;DHT22;1693;49.602;11.046;2023-06-10T07:13:42;21.70;99.90
3360;DHT22;1693;49.602;11.046;2023-06-10T07:16:09;21.70;99.90
3360;DHT22;1693;49.602;11.046;2023-06-10T07:18:36;21.90;99.90
3360;DHT22;1693;49.602;11.046;2023-06-10T07:21:05;22.10;99.90
3360;DHT22;1693;49.602;11.046;2023-06-10T07:23:32;22.20;99.90
3360;DHT22;1693;49.602;11.046;2023-06-10T07:25:58;22.30;99.90
3360;DHT22;1693;49.602;11.046;2023-06-10T07:28:25;22.30;99.90
3360;DHT22;1693;49.602;11.046;2023-06-10T07:30:52;22.40;99.90
3360;DHT22;1693;49.602;11.046;2023-06-10T07:33:20;22.40;99.90
3360;DHT22;1693;49.602;11.046;2023-06-10T07:35:47;22.40;99.90
3360;DHT22;1693;49.602;11.046;2023-06-10T07:38:17;22.60;99.90
3360;DHT22;1693;49.602;11.046;2023-06-10T07:40:45;22.70;99.90
3360;DHT22;1693;49.602;11.046;2023-06-10T07:43:13;22.70;99.90
3360;DHT22;1693;49.602;11.046;2023-06-10T07:45:40;22.90;99.90
3360;DHT22;1693;49.602;11.046;2023-06-10T07:48:07;22.90;99.90
3360;DHT22;1693;49.602;11.046;2023-06-10T07:50:34;23.00;99.90
3360;DHT22;1693;49.602;11.046;2023-06-10T07:53:02;23.30;99.90
3360;DHT22;1693;49.602;11.046;2023-06-10T11:09:28;29.30;90.90
3360;DHT22;1693;49.602;11.046;2023-06-10T11:11:57;29.90;89.30
3360;DHT22;1693;49.602;11.046;2023-06-10T11:14:29;29.60;87.30
3360;DHT22;1693;49.602;11.046;2023-06-10T11:16:58;29.20;91.10
3360;DHT22;1693;49.602;11.046;2023-06-10T11:19:32;29.60;90.00
3360;DHT22;1693;49.602;11.046;2023-06-10T11:22:00;29.80;90.90
3360;DHT22;1693;49.602;11.046;2023-06-10T11:24:28;29.10;90.00
3360;DHT22;1693;49.602;11.046;2023-06-10T11:37:21;28.40;94.30
3360;DHT22;1693;49.602;11.046;2023-06-10T11:39:52;28.50;94.60
3360;DHT22;1693;49.602;11.046;2023-06-10T11:42:19;28.10;92.10
3360;DHT22;1693;49.602;11.046;2023-06-10T11:44:51;28.60;94.90
3360;DHT22;1693;49.602;11.046;2023-06-10T11:49:56;29.60;91.20
3360;DHT22;1693;49.602;11.046;2023-06-10T11:52:26;28.90;92.30
3360;DHT22;1693;49.602;11.046;2023-06-10T11:54:54;29.30;90.70
3360;DHT22;1693;49.602;11.046;2023-06-10T11:57:21;30.00;93.70
3360;DHT22;1693;49.602;11.046;2023-06-10T11:59:48;31.60;99.90
3360;DHT22;1693;49.602;11.046;2023-06-10T12:02:16;32.30;99.90
3360;DHT22;1693;49.602;11.046;2023-06-10T12:04:43;31.90;99.90
3360;DHT22;1693;49.602;11.046;2023-06-10T12:07:17;33.40;99.90
3360;DHT22;1693;49.602;11.046;2023-06-10T12:09:44;33.40;99.50
3360;DHT22;1693;49.602;11.046;2023-06-10T12:12:11;33.10;77.30
3360;DHT22;1693;49.602;11.046;2023-06-10T12:24:57;34.80;59.40
3360;DHT22;1693;49.602;11.046;2023-06-10T12:27:26;34.80;60.70
3360;DHT22;1693;49.602;11.046;2023-06-10T12:29:55;35.70;59.90
3360;DHT22;1693;49.602;11.046;2023-06-10T12:35:03;36.90;54.80
3360;DHT22;1693;49.602;11.046;2023-06-10T12:37:32;37.30;56.10
3360;DHT22;1693;49.602;11.046;2023-06-10T12:40:00;37.40;56.30
3360;DHT22;1693;49.602;11.046;2023-06-10T12:42:28;36.50;55.70
3360;DHT22;1693;49.602;11.046;2023-06-10T12:49:58;32.90;91.80
3360;DHT22;1693;49.602;11.046;2023-06-10T12:52:25;34.70;62.90
3360;DHT22;1693;49.602;11.046;2023-06-10T12:54:54;34.20;58.70
3360;DHT22;1693;49.602;11.046;2023-06-10T12:57:22;35.20;59.40
3360;DHT22;1693;49.602;11.046;2023-06-10T12:59:49;35.40;56.50
3360;DHT22;1693;49.602;11.046;2023-06-10T13:02:18;36.10;55.50
3360;DHT22;1693;49.602;11.046;2023-06-10T13:04:46;35.40;57.20
3360;DHT22;1693;49.602;11.046;2023-06-10T13:07:13;34.50;57.60
3360;DHT22;1693;49.602;11.046;2023-06-10T13:17:05;34.30;95.80
3360;DHT22;1693;49.602;11.046;2023-06-10T13:22:00;32.70;64.10
3360;DHT22;1693;49.602;11.046;2023-06-10T13:26:55;34.60;63.60
3360;DHT22;1693;49.602;11.046;2023-06-10T13:29:24;34.70;56.50
3360;DHT22;1693;49.602;11.046;2023-06-10T13:34:19;35.30;55.90
3360;DHT22;1693;49.602;11.046;2023-06-10T13:36:46;35.60;56.70
3360;DHT22;1693;49.602;11.046;2023-06-10T13:39:13;36.30;55.10
3360;DHT22;1693;49.602;11.046;2023-06-10T13:44:08;35.50;55.30
3360;DHT22;1693;49.602;11.046;2023-06-10T13:46:37;36.00;55.40
3360;DHT22;1693;49.602;11.046;2023-06-10T13:49:04;35.90;55.20
3360;DHT22;1693;49.602;11.046;2023-06-10T13:51:31;37.10;55.10
3360;DHT22;1693;49.602;11.046;2023-06-10T13:58:53;40.00;50.00
3360;DHT22;1693;49.602;11.046;2023-06-10T14:01:20;38.70;49.20
3360;DHT22;1693;49.602;11.046;2023-06-10T14:03:49;39.10;50.20
3360;DHT22;1693;49.602;11.046;2023-06-10T14:06:16;39.30;47.70
3360;DHT22;1693;49.602;11.046;2023-06-10T14:08:44;39.60;48.10
3360;DHT22;1693;49.602;11.046;2023-06-10T14:11:11;38.40;48.80
3360;DHT22;1693;49.602;11.046;2023-06-10T14:13:39;37.70;48.90
3360;DHT22;1693;49.602;11.046;2023-06-10T14:16:06;38.70;48.50
3360;DHT22;1693;49.602;11.046;2023-06-10T14:18:33;37.00;49.20
3360;DHT22;1693;49.602;11.046;2023-06-10T14:21:01;36.70;50.70
3360;DHT22;1693;49.602;11.046;2023-06-10T14:23:28;37.80;49.40
3360;DHT22;1693;49.602;11.046;2023-06-10T14:25:55;37.30;49.00
3360;DHT22;1693;49.602;11.046;2023-06-10T14:28:22;36.50;48.40
3360;DHT22;1693;49.602;11.046;2023-06-10T14:30:52;36.60;50.00
3360;DHT22;1693;49.602;11.046;2023-06-10T14:33:20;37.40;49.00
3360;DHT22;1693;49.602;11.046;2023-06-10T14:35:48;37.50;51.30
3360;DHT22;1693;49.602;11.046;2023-06-10T14:38:17;37.60;48.70
3360;DHT22;1693;49.602;11.046;2023-06-10T14:40:44;36.60;51.40
3360;DHT22;1693;49.602;11.046;2023-06-10T14:43:11;37.60;50.00
3360;DHT22;1693;49.602;11.046;2023-06-10T14:45:39;37.40;48.60
3360;DHT22;1693;49.602;11.046;2023-06-10T14:48:07;38.10;47.30
3360;DHT22;1693;49.602;11.046;2023-06-10T14:53:02;36.90;48.10
3360;DHT22;1693;49.602;11.046;2023-06-10T14:55:31;37.40;48.60
3360;DHT22;1693;49.602;11.046;2023-06-10T15:00:25;33.80;53.10
3360;DHT22;1693;49.602;11.046;2023-06-10T15:02:52;31.80;88.00
3360;DHT22;1693;49.602;11.046;2023-06-10T15:07:48;29.10;66.20
3360;DHT22;1693;49.602;11.046;2023-06-10T16:06:54;24.60;99.90
3360;DHT22;1693;49.602;11.046;2023-06-10T16:09:22;24.60;99.90
3360;DHT22;1693;49.602;11.046;2023-06-10T16:21:49;28.20;99.90
3360;DHT22;1693;49.602;11.046;2023-06-10T16:24:16;28.20;99.90
3360;DHT22;1693;49.602;11.046;2023-06-10T16:34:11;34.40;99.90
3360;DHT22;1693;49.602;11.046;2023-06-10T16:36:42;35.90;99.40
3360;DHT22;1693;49.602;11.046;2023-06-10T16:39:10;35.60;89.00
3360;DHT22;1693;49.602;11.046;2023-06-10T16:41:39;35.60;90.20
3360;DHT22;1693;49.602;11.046;2023-06-10T16:44:07;34.10;76.80
3360;DHT22;1693;49.602;11.046;2023-06-10T16:46:35;33.90;81.10
3360;DHT22;1693;49.602;11.046;2023-06-10T16:49:03;34.30;76.20
3360;DHT22;1693;49.602;11.046;2023-06-10T16:51:30;32.60;80.30
3360;DHT22;1693;49.602;11.046;2023-06-10T16:53:59;31.60;78.40
3360;DHT22;1693;49.602;11.046;2023-06-10T16:56:28;30.80;79.80
3360;DHT22;1693;49.602;11.046;2023-06-10T16:58:57;31.70;79.80
3360;DHT22;1693;49.602;11.046;2023-06-10T17:01:24;32.40;78.80
3360;DHT22;1693;49.602;11.046;2023-06-10T17:06:19;34.00;76.90
3360;DHT22;1693;49.602;11.046;2023-06-10T17:08:47;33.10;72.00
3360;DHT22;1693;49.602;11.046;2023-06-10T17:11:14;32.40;74.40
3360;DHT22;1693;49.602;11.046;2023-06-10T17:13:43;32.10;74.50
3360;DHT22;1693;49.602;11.046;2023-06-10T17:16:12;32.40;76.40
3360;DHT22;1693;49.602;11.046;2023-06-10T17:18:43;32.10;72.60
3360;DHT22;1693;49.602;11.046;2023-06-10T17:21:10;31.80;75.70
3360;DHT22;1693;49.602;11.046;2023-06-10T17:23:37;30.80;77.20
3360;DHT22;1693;49.602;11.046;2023-06-10T17:26:07;31.50;76.20
3360;DHT22;1693;49.602;11.046;2023-06-10T17:28:36;31.50;78.60
3360;DHT22;1693;49.602;11.046;2023-06-10T17:31:07;31.90;77.50
3360;DHT22;1693;49.602;11.046;2023-06-10T17:33:36;32.10;74.90
3360;DHT22;1693;49.602;11.046;2023-06-10T17:36:07;31.30;74.80
3360;DHT22;1693;49.602;11.046;2023-06-10T17:38:35;31.50;75.00
3360;DHT22;1693;49.602;11.046;2023-06-10T17:41:05;32.40;73.40
3360;DHT22;1693;49.602;11.046;2023-06-10T17:43:34;32.30;72.40
3360;DHT22;1693;49.602;11.046;2023-06-10T17:46:08;32.70;72.50
3360;DHT22;1693;49.602;11.046;2023-06-10T17:48:37;32.50;71.90
3360;DHT22;1693;49.602;11.046;2023-06-10T17:51:05;32.90;72.40
3360;DHT22;1693;49.602;11.046;2023-06-10T17:53:32;33.20;71.90
3360;DHT22;1693;49.602;11.046;2023-06-10T17:55:59;32.80;71.70
3360;DHT22;1693;49.602;11.046;2023-06-10T17:58:29;32.70;67.60
3360;DHT22;1693;49.602;11.046;2023-06-10T18:03:32;30.10;74.60
3360;DHT22;1693;49.602;11.046;2023-06-10T18:06:03;29.80;75.40
3360;DHT22;1693;49.602;11.046;2023-06-10T18:08:30;29.20;79.80
3360;DHT22;1693;49.602;11.046;2023-06-10T18:11:01;27.90;79.10
3360;DHT22;1693;49.602;11.046;2023-06-10T18:13:30;27.50;83.50
3360;DHT22;1693;49.602;11.046;2023-06-10T18:15:59;27.30;86.40
3360;DHT22;1693;49.602;11.046;2023-06-10T18:18:28;26.60;87.90
3360;DHT22;1693;49.602;11.046;2023-06-10T18:20:59;26.80;87.60
3360;DHT22;1693;49.602;11.046;2023-06-10T18:23:29;26.60;88.30
3360;DHT22;1693;49.602;11.046;2023-06-10T18:25:58;26.30;90.20
3360;DHT22;1693;49.602;11.046;2023-06-10T18:28:25;26.20;90.90
3360;DHT22;1693;49.602;11.046;2023-06-10T18:30:56;26.00;91.00
3360;DHT22;1693;49.602;11.046;2023-06-10T18:33:24;26.10;91.50
3360;DHT22;1693;49.602;11.046;2023-06-10T18:35:52;25.80;90.90
3360;DHT22;1693;49.602;11.046;2023-06-10T18:38:20;25.80;92.20
3360;DHT22;1693;49.602;11.046;2023-06-10T18:40:48;25.80;92.20
3360;DHT22;1693;49.602;11.046;2023-06-10T18:43:16;25.80;93.50
3360;DHT22;1693;49.602;11.046;2023-06-10T18:45:43;25.80;93.10
3360;DHT22;1693;49.602;11.046;2023-06-10T18:48:11;25.60;93.10
3360;DHT22;1693;49.602;11.046;2023-06-10T18:50:38;25.10;93.90
3360;DHT22;1693;49.602;11.046;2023-06-10T18:53:06;24.70;95.00
3360;DHT22;1693;49.602;11.046;2023-06-10T18:55:35;24.60;94.20
3360;DHT22;1693;49.602;11.046;2023-06-10T18:58:02;24.40;94.10
3360;DHT22;1693;49.602;11.046;2023-06-10T19:00:31;24.10;99.90
3360;DHT22;1693;49.602;11.046;2023-06-10T19:02:58;24.10;96.30
3360;DHT22;1693;49.602;11.046;2023-06-10T19:05:27;24.00;95.30
3360;DHT22;1693;49.602;11.046;2023-06-10T19:08:00;23.80;96.00
3360;DHT22;1693;49.602;11.046;2023-06-10T19:10:38;23.50;95.30
3360;DHT22;1693;49.602;11.046;2023-06-10T19:13:11;23.50;96.40
3360;DHT22;1693;49.602;11.046;2023-06-10T19:15:38;23.30;96.20
